Spasatel Demidov — UBAO9 — position and weather

sailwx.info

Track history (hours):
 
Tides and Currents Weather Stations Pressure Air Temp Water Temp Dewpoint Dewpoint Depression Visibility Wind Speed Wind Dir Waves Ship Positions

Spasatel Demidov

Last reported at 2018-Jul-17 23:17 UTC. Time now 2018-Aug-14 19:26 UTC.
Position N 69°03' E 033°05'.
Warning: this ship's position is 27 days out of date.

Length 73 m; draft 5 m.

Type: SAR. MMSI: 273387420.

Date/timePositionNaut miles runAvg speedWind from/ knotsBaromVisibWave heightAir tempDewpointWater temp
2018-Jul-17 23:17N 69°03' E 033°05'2 6.1
2018-Jul-17 23:00N 69°02' E 033°03'1 1.7
2018-Jul-17 22:08N 69°00' E 033°01'0 0.0
2018-Jul-17 20:54N 69°00' E 033°01'0 0.0
2018-Jul-17 20:28N 69°00' E 033°01'0 0.0
2018-Jul-17 19:56N 69°00' E 033°01'0 0.0
2018-Jul-17 18:42N 69°00' E 033°01'0 0.0
2018-Jul-17 18:30N 69°00' E 033°01'2 4.3
2018-Jul-17 18:00N 68°58' E 033°02'2 2.7
2018-Jul-17 17:23N 68°57' E 033°02'0 0.0
2018-Jul-17 12:38N 68°57' E 033°02'0 0.0
2018-Jul-17 09:20N 68°57' E 033°02'0 0.1
2018-Jul-17 09:00N 68°57' E 033°02'0 1.0
2018-Jul-17 08:30N 68°57' E 033°01'3 6.0
2018-Jul-17 07:59N 69°00' E 033°03'1 0.1
2018-Jul-16 21:55N 69°01' E 033°02'1 0.1
2018-Jul-16 16:11N 69°01' E 033°03'0 0.0
2018-Jul-16 04:34N 69°01' E 033°03'0 0.0
2018-Jul-16 04:24N 69°01' E 033°03'0 0.0
2018-Jul-16 03:54N 69°01' E 033°03'0 0.0
2018-Jul-16 03:29N 69°01' E 033°03'0 0.0
2018-Jul-16 02:50N 69°01' E 033°03'0 0.0
2018-Jul-16 02:29N 69°01' E 033°03'0 0.0
2018-Jul-16 01:53N 69°01' E 033°03'0 0.0
2018-Jul-16 01:26N 69°01' E 033°03'0 0.0
2018-Jul-16 00:44N 69°01' E 033°03'0 0.0
2018-Jul-16 00:30N 69°01' E 033°03'0 0.0
2018-Jul-15 23:57N 69°01' E 033°03'0 0.0
2018-Jul-15 23:27N 69°01' E 033°03'0 0.0
2018-Jul-15 22:43N 69°01' E 033°03'0 0.0
2018-Jul-15 22:28N 69°01' E 033°03'0 0.0
2018-Jul-15 21:54N 69°01' E 033°03'0 0.0
2018-Jul-15 21:25N 69°01' E 033°03'0 0.0
2018-Jul-15 20:38N 69°01' E 033°03'0 0.0
2018-Jul-15 20:14N 69°01' E 033°03'0 0.0
2018-Jul-15 19:58N 69°01' E 033°03'0 0.0
2018-Jul-15 19:30N 69°01' E 033°03'0 0.0
2018-Jul-15 18:57N 69°01' E 033°03'0 0.0
2018-Jul-15 18:22N 69°01' E 033°03'0 0.0
2018-Jul-15 18:00N 69°01' E 033°03'0 0.0
2018-Jul-15 17:30N 69°01' E 033°03'0 0.0
2018-Jul-15 16:13N 69°01' E 033°03'0 0.0
2018-Jul-15 15:57N 69°01' E 033°03'0 0.0
2018-Jul-15 15:14N 69°01' E 033°03'0 0.0
2018-Jul-15 14:20N 69°01' E 033°03'0 0.0
2018-Jul-15 13:55N 69°01' E 033°03'0 0.0
2018-Jul-15 13:18N 69°01' E 033°03'0 0.0
2018-Jul-15 12:54N 69°01' E 033°03'0 0.0
2018-Jul-15 12:30N 69°01' E 033°03'0 0.0
2018-Jul-15 10:51N 69°01' E 033°03'0 0.0
2018-Jul-15 10:27N 69°01' E 033°03'0 0.0
2018-Jul-15 09:41N 69°01' E 033°03'0 0.0
2018-Jul-15 09:18N 69°01' E 033°03'0 0.0
2018-Jul-15 08:43N 69°01' E 033°03'0 0.0
2018-Jul-15 08:27N 69°01' E 033°03'0 0.0
2018-Jul-15 07:58N 69°01' E 033°03'0 0.0
2018-Jul-15 07:29N 69°01' E 033°03'0 0.0
2018-Jul-15 06:41N 69°01' E 033°03'0 0.0
2018-Jul-15 06:29N 69°01' E 033°03'0 0.0
2018-Jul-15 05:50N 69°01' E 033°03'0 0.0
2018-Jul-15 05:16N 69°01' E 033°03'0 0.0
2018-Jul-15 04:49N 69°01' E 033°03'0 0.0
2018-Jul-15 04:28N 69°01' E 033°03'0 0.0
2018-Jul-15 03:58N 69°01' E 033°03'0 0.0
2018-Jul-15 03:25N 69°01' E 033°03'0 0.0
2018-Jul-15 02:50N 69°01' E 033°03'0 0.0
2018-Jul-15 02:29N 69°01' E 033°03'0 0.0
2018-Jul-15 02:00N 69°01' E 033°03'0 0.0
2018-Jul-15 01:28N 69°01' E 033°03'0 0.0
2018-Jul-15 00:55N 69°01' E 033°03'0 0.0
2018-Jul-15 00:22N 69°01' E 033°03'0 0.0
2018-Jul-14 23:51N 69°01' E 033°03'0 0.0
2018-Jul-14 23:18N 69°01' E 033°03'0 0.0
2018-Jul-14 22:46N 69°01' E 033°03'0 0.0
2018-Jul-14 22:28N 69°01' E 033°03'0 0.0
2018-Jul-14 21:56N 69°01' E 033°03'0 0.0
2018-Jul-14 21:28N 69°01' E 033°03'0 0.0
2018-Jul-14 20:58N 69°01' E 033°03'0 0.0
2018-Jul-14 19:50N 69°01' E 033°03'0 0.0
2018-Jul-14 19:28N 69°01' E 033°03'0 0.0
2018-Jul-14 18:59N 69°01' E 033°03'0 0.0
2018-Jul-14 18:21N 69°01' E 033°03'0 0.0
2018-Jul-14 17:56N 69°01' E 033°03'0 0.0
2018-Jul-14 17:26N 69°01' E 033°03'0 0.0
2018-Jul-14 16:59N 69°01' E 033°03'0 0.0
2018-Jul-14 16:29N 69°01' E 033°03'0 0.0
2018-Jul-14 16:00N 69°01' E 033°03'0 0.0
2018-Jul-14 15:20N 69°01' E 033°03'0 0.0
2018-Jul-14 14:58N 69°01' E 033°03'0 0.0
2018-Jul-14 14:22N 69°01' E 033°03'0 0.0
2018-Jul-14 13:19N 69°01' E 033°03'0 0.0
2018-Jul-14 12:58N 69°01' E 033°03'0 0.0
2018-Jul-14 12:27N 69°01' E 033°03'0 0.0
2018-Jul-14 11:59N 69°01' E 033°03'0 0.0
2018-Jul-14 11:28N 69°01' E 033°03'0 0.0
2018-Jul-14 11:00N 69°01' E 033°03'0 0.0
2018-Jul-14 10:30N 69°01' E 033°03'0 0.0
2018-Jul-14 09:54N 69°01' E 033°03'0 0.0
2018-Jul-14 09:27N 69°01' E 033°03'0 0.0
2018-Jul-14 09:00N 69°01' E 033°03'0 0.0
2018-Jul-14 08:11N 69°01' E 033°03'0 0.0
2018-Jul-14 07:59N 69°01' E 033°03'0 0.0
2018-Jul-14 07:26N 69°01' E 033°03'0 0.0
2018-Jul-14 06:50N 69°01' E 033°03'0 0.0
2018-Jul-14 06:27N 69°01' E 033°03'0 0.0
2018-Jul-14 05:42N 69°01' E 033°03'0 0.0
2018-Jul-14 05:15N 69°01' E 033°03'0 0.0
2018-Jul-14 04:47N 69°01' E 033°03'0 0.0
2018-Jul-14 04:30N 69°01' E 033°03'0 0.0
2018-Jul-14 03:51N 69°01' E 033°03'0 0.0
2018-Jul-14 03:25N 69°01' E 033°03'0 0.0
2018-Jul-14 02:58N 69°01' E 033°03'0 0.0
2018-Jul-14 02:29N 69°01' E 033°03'0 0.0
2018-Jul-14 01:59N 69°01' E 033°03'0 0.0
2018-Jul-14 01:19N 69°01' E 033°03'0 0.0
2018-Jul-14 01:00N 69°01' E 033°03'0 0.0
2018-Jul-14 00:30N 69°01' E 033°03'0 0.0
2018-Jul-13 23:59N 69°01' E 033°03'0 0.0
2018-Jul-13 23:18N 69°01' E 033°03'0 0.0
2018-Jul-13 22:59N 69°01' E 033°03'0 0.0
2018-Jul-13 22:30N 69°01' E 033°03'0 0.0
2018-Jul-13 21:57N 69°01' E 033°03'0 0.0
2018-Jul-13 21:28N 69°01' E 033°03'0 0.0
2018-Jul-13 20:59N 69°01' E 033°03'0 0.0
2018-Jul-13 20:26N 69°01' E 033°03'0 0.0
2018-Jul-13 19:59N 69°01' E 033°03'0 0.0
2018-Jul-13 19:23N 69°01' E 033°03'0 0.0
2018-Jul-13 18:48N 69°01' E 033°03'0 0.0
2018-Jul-13 18:22N 69°01' E 033°03'0 0.0
2018-Jul-13 17:58N 69°01' E 033°03'0 0.0
2018-Jul-13 17:29N 69°01' E 033°03'0 0.0
2018-Jul-13 16:56N 69°01' E 033°03'0 0.0
2018-Jul-13 16:27N 69°01' E 033°03'0 0.0
2018-Jul-13 15:58N 69°01' E 033°03'0 0.0
2018-Jul-13 15:28N 69°01' E 033°03'0 0.0
2018-Jul-13 14:47N 69°01' E 033°03'0 0.0
2018-Jul-13 13:57N 69°01' E 033°03'0 0.0
2018-Jul-13 13:27N 69°01' E 033°03'0 0.0
2018-Jul-13 12:59N 69°01' E 033°03'0 0.0
2018-Jul-13 12:12N 69°01' E 033°03'0 0.0
2018-Jul-13 11:59N 69°01' E 033°03'0 0.0
2018-Jul-13 11:25N 69°01' E 033°03'0 0.0
2018-Jul-13 10:53N 69°01' E 033°03'0 0.0
2018-Jul-13 10:23N 69°01' E 033°03'0 0.0
2018-Jul-13 09:51N 69°01' E 033°03'0 0.0
2018-Jul-13 08:54N 69°01' E 033°03'0 0.0
2018-Jul-13 08:30N 69°01' E 033°03'0 0.0
2018-Jul-13 07:59N 69°01' E 033°03'0 0.0
2018-Jul-13 07:29N 69°01' E 033°03'0 0.0
2018-Jul-13 07:00N 69°01' E 033°03'0 0.0
2018-Jul-13 06:30N 69°01' E 033°03'0 0.0
2018-Jul-13 05:58N 69°01' E 033°03'0 0.0
2018-Jul-13 05:29N 69°01' E 033°03'0 0.0
2018-Jul-13 04:57N 69°01' E 033°03'0 0.0
2018-Jul-13 04:24N 69°01' E 033°03'0 0.0
2018-Jul-13 03:58N 69°01' E 033°03'0 0.0
2018-Jul-13 03:30N 69°01' E 033°03'0 0.0
2018-Jul-13 03:00N 69°01' E 033°03'0 0.0
2018-Jul-13 02:28N 69°01' E 033°03'0 0.0
2018-Jul-13 01:20N 69°01' E 033°03'0 0.0
2018-Jul-13 00:58N 69°01' E 033°03'0 0.0
2018-Jul-13 00:08N 69°01' E 033°03'0 0.0
2018-Jul-12 23:49N 69°01' E 033°03'0 0.0
2018-Jul-12 23:30N 69°01' E 033°03'0 0.0
2018-Jul-12 22:54N 69°01' E 033°03'0 0.0
2018-Jul-12 20:46N 69°01' E 033°03'0 0.0
2018-Jul-12 20:22N 69°01' E 033°03'0 0.0
2018-Jul-12 19:43N 69°01' E 033°03'0 0.0
2018-Jul-12 19:29N 69°01' E 033°03'0 0.0
2018-Jul-12 19:00N 69°01' E 033°03'0 0.0
2018-Jul-12 18:26N 69°01' E 033°03'0 0.0
2018-Jul-12 17:53N 69°01' E 033°03'0 0.0
2018-Jul-12 17:25N 69°01' E 033°03'0 0.0
2018-Jul-12 16:55N 69°01' E 033°03'0 0.0
2018-Jul-12 16:29N 69°01' E 033°03'0 0.0
2018-Jul-12 15:52N 69°01' E 033°03'0 0.0
2018-Jul-12 15:27N 69°01' E 033°03'0 0.0
2018-Jul-12 15:00N 69°01' E 033°03'0 0.0
2018-Jul-12 12:40N 69°01' E 033°03'0 0.0
2018-Jul-12 12:19N 69°01' E 033°03'0 0.0
2018-Jul-12 11:57N 69°01' E 033°03'0 0.0
2018-Jul-12 11:29N 69°01' E 033°03'0 0.0
2018-Jul-12 10:59N 69°01' E 033°03'0 0.0
2018-Jul-12 10:30N 69°01' E 033°03'0 0.0
2018-Jul-12 10:00N 69°01' E 033°03'0 0.0
2018-Jul-12 08:23N 69°01' E 033°03'0 0.0
2018-Jul-12 07:32N 69°01' E 033°03'0 0.0
2018-Jul-12 07:02N 69°01' E 033°03'0 0.0
2018-Jul-12 06:49N 69°01' E 033°03'0 0.0
2018-Jul-12 05:25N 69°01' E 033°03'0 0.0
2018-Jul-12 05:00N 69°01' E 033°03'0 0.0
2018-Jul-12 02:27N 69°01' E 033°03'0 0.0
2018-Jul-12 01:48N 69°01' E 033°03'0 0.0
2018-Jul-12 00:30N 69°01' E 033°03'0 0.0
2018-Jul-11 23:57N 69°01' E 033°03'0 0.0
2018-Jul-11 23:20N 69°01' E 033°03'0 0.0
2018-Jul-11 17:11N 69°01' E 033°03'0 0.0
2018-Jul-11 16:10N 69°01' E 033°03'0 0.0
2018-Jul-11 10:07N 69°01' E 033°03'0 0.0
2018-Jul-11 09:54N 69°01' E 033°03'0 0.0
2018-Jul-11 09:19N 69°01' E 033°03'0 0.0
2018-Jul-11 08:57N 69°01' E 033°03'0 0.0
2018-Jul-11 07:44N 69°01' E 033°03'0 0.0
2018-Jul-11 06:42N 69°01' E 033°03'0 0.0
2018-Jul-11 05:28N 69°01' E 033°03'0 0.0
2018-Jul-11 04:59N 69°01' E 033°03'0 0.0
2018-Jul-11 04:29N 69°01' E 033°03'0 0.0
2018-Jul-11 03:54N 69°01' E 033°03'0 0.0
2018-Jul-11 02:48N 69°01' E 033°03'0 0.0
2018-Jul-11 02:17N 69°01' E 033°03'0 0.0
2018-Jul-11 01:53N 69°01' E 033°03'0 0.0
2018-Jul-11 01:30N 69°01' E 033°03'0 0.0
2018-Jul-10 23:11N 69°01' E 033°03'0 0.0
2018-Jul-10 22:59N 69°01' E 033°03'0 0.0
2018-Jul-10 22:09N 69°01' E 033°03'0 0.0
2018-Jul-10 21:11N 69°01' E 033°03'0 0.0
2018-Jul-10 20:56N 69°01' E 033°03'0 0.0
2018-Jul-10 20:27N 69°01' E 033°03'0 0.0
2018-Jul-10 19:47N 69°01' E 033°03'0 0.0
2018-Jul-10 18:50N 69°01' E 033°03'0 0.0
2018-Jul-10 18:29N 69°01' E 033°03'0 0.0
2018-Jul-10 17:52N 69°01' E 033°03'0 0.0
2018-Jul-10 14:37N 69°01' E 033°03'0 0.0
2018-Jul-10 14:11N 69°01' E 033°03'0 0.0
2018-Jul-10 13:17N 69°01' E 033°03'0 0.0
2018-Jul-10 12:59N 69°01' E 033°03'0 0.0
2018-Jul-10 12:18N 69°01' E 033°03'0 0.0
2018-Jul-10 11:06N 69°01' E 033°03'0 0.0
2018-Jul-10 10:55N 69°01' E 033°03'0 0.0
2018-Jul-10 10:28N 69°01' E 033°03'0 0.0
2018-Jul-10 09:58N 69°01' E 033°03'0 0.0
2018-Jul-10 09:26N 69°01' E 033°03'0 0.0
2018-Jul-10 08:59N 69°01' E 033°03'0 0.0
2018-Jul-10 07:30N 69°01' E 033°03'0 0.0
2018-Jul-10 06:58N 69°01' E 033°03'0 0.0
2018-Jul-10 06:16N 69°01' E 033°03'0 0.0
2018-Jul-10 05:58N 69°01' E 033°03'0 0.0
2018-Jul-10 05:29N 69°01' E 033°03'0 0.0
2018-Jul-10 04:59N 69°01' E 033°03'0 0.0
2018-Jul-10 04:23N 69°01' E 033°03'0 0.0
2018-Jul-10 03:53N 69°01' E 033°03'0 0.0
2018-Jul-10 03:14N 69°01' E 033°03'0 0.0
2018-Jul-10 02:48N 69°01' E 033°03'0 0.0
2018-Jul-10 02:24N 69°01' E 033°03'0 0.0
2018-Jul-10 01:56N 69°01' E 033°03'0 0.0
2018-Jul-10 01:25N 69°01' E 033°03'0 0.0
2018-Jul-10 00:59N 69°01' E 033°03'0 0.0
2018-Jul-10 00:26N 69°01' E 033°03'0 0.0
2018-Jul-09 23:56N 69°01' E 033°03'0 0.0
2018-Jul-09 23:18N 69°01' E 033°03'0 0.0
2018-Jul-09 23:00N 69°01' E 033°03'0 0.0
2018-Jul-09 22:13N 69°01' E 033°03'0 0.0
2018-Jul-09 21:21N 69°01' E 033°03'0 0.0
2018-Jul-09 21:00N 69°01' E 033°03'0 0.0
2018-Jul-09 19:31N 69°01' E 033°03'0 0.0
2018-Jul-09 18:24N 69°01' E 033°03'0 0.0
2018-Jul-09 18:00N 69°01' E 033°03'0 0.0
2018-Jul-09 17:15N 69°01' E 033°03'0 0.0
2018-Jul-09 16:51N 69°01' E 033°03'0 0.0
2018-Jul-09 16:24N 69°01' E 033°03'0 0.0
2018-Jul-09 16:00N 69°01' E 033°03'0 0.0
2018-Jul-09 15:30N 69°01' E 033°03'0 0.0
2018-Jul-09 15:00N 69°01' E 033°03'0 0.0
2018-Jul-09 14:10N 69°01' E 033°03'0 0.0
2018-Jul-09 13:59N 69°01' E 033°03'0 0.0
2018-Jul-09 13:04N 69°01' E 033°03'0 0.0
2018-Jul-09 12:34N 69°01' E 033°03'0 0.0
2018-Jul-09 12:28N 69°01' E 033°03'0 0.0
2018-Jul-09 12:00N 69°01' E 033°03'0 0.0
2018-Jul-09 08:53N 69°01' E 033°03'0 0.0
2018-Jul-09 06:53N 69°01' E 033°03'0 0.0
2018-Jul-09 06:22N 69°01' E 033°03'0 0.0
2018-Jul-09 05:41N 69°01' E 033°03'0 0.0
2018-Jul-09 04:54N 69°01' E 033°03'0 0.0
2018-Jul-09 04:28N 69°01' E 033°03'0 0.0
2018-Jul-09 03:08N 69°01' E 033°03'0 0.0
2018-Jul-09 01:38N 69°01' E 033°03'0 0.0
2018-Jul-09 01:21N 69°01' E 033°03'0 0.0
2018-Jul-08 22:37N 69°01' E 033°03'0 0.0
2018-Jul-08 22:26N 69°01' E 033°03'0 0.0
2018-Jul-08 21:19N 69°01' E 033°03'0 0.0
2018-Jul-08 20:56N 69°01' E 033°03'0 0.0
2018-Jul-08 20:02N 69°01' E 033°03'0 0.0
2018-Jul-08 19:50N 69°01' E 033°03'0 0.0
2018-Jul-08 19:29N 69°01' E 033°03'0 0.0
2018-Jul-08 16:32N 69°01' E 033°03'0 0.0
2018-Jul-08 12:15N 69°01' E 033°03'  
Track history (hours):
 
Tides and Currents Weather Stations Pressure Air Temp Water Temp Dewpoint Dewpoint Depression Visibility Wind Speed Wind Dir Waves Ship Positions

Spasatel Demidov

Last reported at 2018-Jul-17 23:17 UTC. Time now 2018-Aug-14 19:26 UTC.
Position N 69°03' E 033°05'.
Warning: this ship's position is 27 days out of date.

Length 73 m; draft 5 m.

Type: SAR. MMSI: 273387420.

Date/timePositionNaut miles runAvg speedWind from/ knotsBaromVisibWave heightAir tempDewpointWater temp
2018-Jul-17 23:17N 69°03' E 033°05'2 6.1
2018-Jul-17 23:00N 69°02' E 033°03'1 1.7
2018-Jul-17 22:08N 69°00' E 033°01'0 0.0
2018-Jul-17 20:54N 69°00' E 033°01'0 0.0
2018-Jul-17 20:28N 69°00' E 033°01'0 0.0
2018-Jul-17 19:56N 69°00' E 033°01'0 0.0
2018-Jul-17 18:42N 69°00' E 033°01'0 0.0
2018-Jul-17 18:30N 69°00' E 033°01'2 4.3
2018-Jul-17 18:00N 68°58' E 033°02'2 2.7
2018-Jul-17 17:23N 68°57' E 033°02'0 0.0
2018-Jul-17 12:38N 68°57' E 033°02'0 0.0
2018-Jul-17 09:20N 68°57' E 033°02'0 0.1
2018-Jul-17 09:00N 68°57' E 033°02'0 1.0
2018-Jul-17 08:30N 68°57' E 033°01'3 6.0
2018-Jul-17 07:59N 69°00' E 033°03'1 0.1
2018-Jul-16 21:55N 69°01' E 033°02'1 0.1
2018-Jul-16 16:11N 69°01' E 033°03'0 0.0
2018-Jul-16 04:34N 69°01' E 033°03'0 0.0
2018-Jul-16 04:24N 69°01' E 033°03'0 0.0
2018-Jul-16 03:54N 69°01' E 033°03'0 0.0
2018-Jul-16 03:29N 69°01' E 033°03'0 0.0
2018-Jul-16 02:50N 69°01' E 033°03'0 0.0
2018-Jul-16 02:29N 69°01' E 033°03'0 0.0
2018-Jul-16 01:53N 69°01' E 033°03'0 0.0
2018-Jul-16 01:26N 69°01' E 033°03'0 0.0
2018-Jul-16 00:44N 69°01' E 033°03'0 0.0
2018-Jul-16 00:30N 69°01' E 033°03'0 0.0
2018-Jul-15 23:57N 69°01' E 033°03'0 0.0
2018-Jul-15 23:27N 69°01' E 033°03'0 0.0
2018-Jul-15 22:43N 69°01' E 033°03'0 0.0
2018-Jul-15 22:28N 69°01' E 033°03'0 0.0
2018-Jul-15 21:54N 69°01' E 033°03'0 0.0
2018-Jul-15 21:25N 69°01' E 033°03'0 0.0
2018-Jul-15 20:38N 69°01' E 033°03'0 0.0
2018-Jul-15 20:14N 69°01' E 033°03'0 0.0
2018-Jul-15 19:58N 69°01' E 033°03'0 0.0
2018-Jul-15 19:30N 69°01' E 033°03'0 0.0
2018-Jul-15 18:57N 69°01' E 033°03'0 0.0
2018-Jul-15 18:22N 69°01' E 033°03'0 0.0
2018-Jul-15 18:00N 69°01' E 033°03'0 0.0
2018-Jul-15 17:30N 69°01' E 033°03'0 0.0
2018-Jul-15 16:13N 69°01' E 033°03'0 0.0
2018-Jul-15 15:57N 69°01' E 033°03'0 0.0
2018-Jul-15 15:14N 69°01' E 033°03'0 0.0
2018-Jul-15 14:20N 69°01' E 033°03'0 0.0
2018-Jul-15 13:55N 69°01' E 033°03'0 0.0
2018-Jul-15 13:18N 69°01' E 033°03'0 0.0
2018-Jul-15 12:54N 69°01' E 033°03'0 0.0
2018-Jul-15 12:30N 69°01' E 033°03'0 0.0
2018-Jul-15 10:51N 69°01' E 033°03'0 0.0
2018-Jul-15 10:27N 69°01' E 033°03'0 0.0
2018-Jul-15 09:41N 69°01' E 033°03'0 0.0
2018-Jul-15 09:18N 69°01' E 033°03'0 0.0
2018-Jul-15 08:43N 69°01' E 033°03'0 0.0
2018-Jul-15 08:27N 69°01' E 033°03'0 0.0
2018-Jul-15 07:58N 69°01' E 033°03'0 0.0
2018-Jul-15 07:29N 69°01' E 033°03'0 0.0
2018-Jul-15 06:41N 69°01' E 033°03'0 0.0
2018-Jul-15 06:29N 69°01' E 033°03'0 0.0
2018-Jul-15 05:50N 69°01' E 033°03'0 0.0
2018-Jul-15 05:16N 69°01' E 033°03'0 0.0
2018-Jul-15 04:49N 69°01' E 033°03'0 0.0
2018-Jul-15 04:28N 69°01' E 033°03'0 0.0
2018-Jul-15 03:58N 69°01' E 033°03'0 0.0
2018-Jul-15 03:25N 69°01' E 033°03'0 0.0
2018-Jul-15 02:50N 69°01' E 033°03'0 0.0
2018-Jul-15 02:29N 69°01' E 033°03'0 0.0
2018-Jul-15 02:00N 69°01' E 033°03'0 0.0
2018-Jul-15 01:28N 69°01' E 033°03'0 0.0
2018-Jul-15 00:55N 69°01' E 033°03'0 0.0
2018-Jul-15 00:22N 69°01' E 033°03'0 0.0
2018-Jul-14 23:51N 69°01' E 033°03'0 0.0
2018-Jul-14 23:18N 69°01' E 033°03'0 0.0
2018-Jul-14 22:46N 69°01' E 033°03'0 0.0
2018-Jul-14 22:28N 69°01' E 033°03'0 0.0
2018-Jul-14 21:56N 69°01' E 033°03'0 0.0
2018-Jul-14 21:28N 69°01' E 033°03'0 0.0
2018-Jul-14 20:58N 69°01' E 033°03'0 0.0
2018-Jul-14 19:50N 69°01' E 033°03'0 0.0
2018-Jul-14 19:28N 69°01' E 033°03'0 0.0
2018-Jul-14 18:59N 69°01' E 033°03'0 0.0
2018-Jul-14 18:21N 69°01' E 033°03'0 0.0
2018-Jul-14 17:56N 69°01' E 033°03'0 0.0
2018-Jul-14 17:26N 69°01' E 033°03'0 0.0
2018-Jul-14 16:59N 69°01' E 033°03'0 0.0
2018-Jul-14 16:29N 69°01' E 033°03'0 0.0
2018-Jul-14 16:00N 69°01' E 033°03'0 0.0
2018-Jul-14 15:20N 69°01' E 033°03'0 0.0
2018-Jul-14 14:58N 69°01' E 033°03'0 0.0
2018-Jul-14 14:22N 69°01' E 033°03'0 0.0
2018-Jul-14 13:19N 69°01' E 033°03'0 0.0
2018-Jul-14 12:58N 69°01' E 033°03'0 0.0
2018-Jul-14 12:27N 69°01' E 033°03'0 0.0
2018-Jul-14 11:59N 69°01' E 033°03'0 0.0
2018-Jul-14 11:28N 69°01' E 033°03'0 0.0
2018-Jul-14 11:00N 69°01' E 033°03'0 0.0
2018-Jul-14 10:30N 69°01' E 033°03'0 0.0
2018-Jul-14 09:54N 69°01' E 033°03'0 0.0
2018-Jul-14 09:27N 69°01' E 033°03'0 0.0
2018-Jul-14 09:00N 69°01' E 033°03'0 0.0
2018-Jul-14 08:11N 69°01' E 033°03'0 0.0
2018-Jul-14 07:59N 69°01' E 033°03'0 0.0
2018-Jul-14 07:26N 69°01' E 033°03'0 0.0
2018-Jul-14 06:50N 69°01' E 033°03'0 0.0
2018-Jul-14 06:27N 69°01' E 033°03'0 0.0
2018-Jul-14 05:42N 69°01' E 033°03'0 0.0
2018-Jul-14 05:15N 69°01' E 033°03'0 0.0
2018-Jul-14 04:47N 69°01' E 033°03'0 0.0
2018-Jul-14 04:30N 69°01' E 033°03'0 0.0
2018-Jul-14 03:51N 69°01' E 033°03'0 0.0
2018-Jul-14 03:25N 69°01' E 033°03'0 0.0
2018-Jul-14 02:58N 69°01' E 033°03'0 0.0
2018-Jul-14 02:29N 69°01' E 033°03'0 0.0
2018-Jul-14 01:59N 69°01' E 033°03'0 0.0
2018-Jul-14 01:19N 69°01' E 033°03'0 0.0
2018-Jul-14 01:00N 69°01' E 033°03'0 0.0
2018-Jul-14 00:30N 69°01' E 033°03'0 0.0
2018-Jul-13 23:59N 69°01' E 033°03'0 0.0
2018-Jul-13 23:18N 69°01' E 033°03'0 0.0
2018-Jul-13 22:59N 69°01' E 033°03'0 0.0
2018-Jul-13 22:30N 69°01' E 033°03'0 0.0
2018-Jul-13 21:57N 69°01' E 033°03'0 0.0
2018-Jul-13 21:28N 69°01' E 033°03'0 0.0
2018-Jul-13 20:59N 69°01' E 033°03'0 0.0
2018-Jul-13 20:26N 69°01' E 033°03'0 0.0
2018-Jul-13 19:59N 69°01' E 033°03'0 0.0
2018-Jul-13 19:23N 69°01' E 033°03'0 0.0
2018-Jul-13 18:48N 69°01' E 033°03'0 0.0
2018-Jul-13 18:22N 69°01' E 033°03'0 0.0
2018-Jul-13 17:58N 69°01' E 033°03'0 0.0
2018-Jul-13 17:29N 69°01' E 033°03'0 0.0
2018-Jul-13 16:56N 69°01' E 033°03'0 0.0
2018-Jul-13 16:27N 69°01' E 033°03'0 0.0
2018-Jul-13 15:58N 69°01' E 033°03'0 0.0
2018-Jul-13 15:28N 69°01' E 033°03'0 0.0
2018-Jul-13 14:47N 69°01' E 033°03'0 0.0
2018-Jul-13 13:57N 69°01' E 033°03'0 0.0
2018-Jul-13 13:27N 69°01' E 033°03'0 0.0
2018-Jul-13 12:59N 69°01' E 033°03'0 0.0
2018-Jul-13 12:12N 69°01' E 033°03'0 0.0
2018-Jul-13 11:59N 69°01' E 033°03'0 0.0
2018-Jul-13 11:25N 69°01' E 033°03'0 0.0
2018-Jul-13 10:53N 69°01' E 033°03'0 0.0
2018-Jul-13 10:23N 69°01' E 033°03'0 0.0
2018-Jul-13 09:51N 69°01' E 033°03'0 0.0
2018-Jul-13 08:54N 69°01' E 033°03'0 0.0
2018-Jul-13 08:30N 69°01' E 033°03'0 0.0
2018-Jul-13 07:59N 69°01' E 033°03'0 0.0
2018-Jul-13 07:29N 69°01' E 033°03'0 0.0
2018-Jul-13 07:00N 69°01' E 033°03'0 0.0
2018-Jul-13 06:30N 69°01' E 033°03'0 0.0
2018-Jul-13 05:58N 69°01' E 033°03'0 0.0
2018-Jul-13 05:29N 69°01' E 033°03'0 0.0
2018-Jul-13 04:57N 69°01' E 033°03'0 0.0
2018-Jul-13 04:24N 69°01' E 033°03'0 0.0
2018-Jul-13 03:58N 69°01' E 033°03'0 0.0
2018-Jul-13 03:30N 69°01' E 033°03'0 0.0
2018-Jul-13 03:00N 69°01' E 033°03'0 0.0
2018-Jul-13 02:28N 69°01' E 033°03'0 0.0
2018-Jul-13 01:20N 69°01' E 033°03'0 0.0
2018-Jul-13 00:58N 69°01' E 033°03'0 0.0
2018-Jul-13 00:08N 69°01' E 033°03'0 0.0
2018-Jul-12 23:49N 69°01' E 033°03'0 0.0
2018-Jul-12 23:30N 69°01' E 033°03'0 0.0
2018-Jul-12 22:54N 69°01' E 033°03'0 0.0
2018-Jul-12 20:46N 69°01' E 033°03'0 0.0
2018-Jul-12 20:22N 69°01' E 033°03'0 0.0
2018-Jul-12 19:43N 69°01' E 033°03'0 0.0
2018-Jul-12 19:29N 69°01' E 033°03'0 0.0
2018-Jul-12 19:00N 69°01' E 033°03'0 0.0
2018-Jul-12 18:26N 69°01' E 033°03'0 0.0
2018-Jul-12 17:53N 69°01' E 033°03'0 0.0
2018-Jul-12 17:25N 69°01' E 033°03'0 0.0
2018-Jul-12 16:55N 69°01' E 033°03'0 0.0
2018-Jul-12 16:29N 69°01' E 033°03'0 0.0
2018-Jul-12 15:52N 69°01' E 033°03'0 0.0
2018-Jul-12 15:27N 69°01' E 033°03'0 0.0
2018-Jul-12 15:00N 69°01' E 033°03'0 0.0
2018-Jul-12 12:40N 69°01' E 033°03'0 0.0
2018-Jul-12 12:19N 69°01' E 033°03'0 0.0
2018-Jul-12 11:57N 69°01' E 033°03'0 0.0
2018-Jul-12 11:29N 69°01' E 033°03'0 0.0
2018-Jul-12 10:59N 69°01' E 033°03'0 0.0
2018-Jul-12 10:30N 69°01' E 033°03'0 0.0
2018-Jul-12 10:00N 69°01' E 033°03'0 0.0
2018-Jul-12 08:23N 69°01' E 033°03'0 0.0
2018-Jul-12 07:32N 69°01' E 033°03'0 0.0
2018-Jul-12 07:02N 69°01' E 033°03'0 0.0
2018-Jul-12 06:49N 69°01' E 033°03'0 0.0
2018-Jul-12 05:25N 69°01' E 033°03'0 0.0
2018-Jul-12 05:00N 69°01' E 033°03'0 0.0
2018-Jul-12 02:27N 69°01' E 033°03'0 0.0
2018-Jul-12 01:48N 69°01' E 033°03'0 0.0
2018-Jul-12 00:30N 69°01' E 033°03'0 0.0
2018-Jul-11 23:57N 69°01' E 033°03'0 0.0
2018-Jul-11 23:20N 69°01' E 033°03'0 0.0
2018-Jul-11 17:11N 69°01' E 033°03'0 0.0
2018-Jul-11 16:10N 69°01' E 033°03'0 0.0
2018-Jul-11 10:07N 69°01' E 033°03'0 0.0
2018-Jul-11 09:54N 69°01' E 033°03'0 0.0
2018-Jul-11 09:19N 69°01' E 033°03'0 0.0
2018-Jul-11 08:57N 69°01' E 033°03'0 0.0
2018-Jul-11 07:44N 69°01' E 033°03'0 0.0
2018-Jul-11 06:42N 69°01' E 033°03'0 0.0
2018-Jul-11 05:28N 69°01' E 033°03'0 0.0
2018-Jul-11 04:59N 69°01' E 033°03'0 0.0
2018-Jul-11 04:29N 69°01' E 033°03'0 0.0
2018-Jul-11 03:54N 69°01' E 033°03'0 0.0
2018-Jul-11 02:48N 69°01' E 033°03'0 0.0
2018-Jul-11 02:17N 69°01' E 033°03'0 0.0
2018-Jul-11 01:53N 69°01' E 033°03'0 0.0
2018-Jul-11 01:30N 69°01' E 033°03'0 0.0
2018-Jul-10 23:11N 69°01' E 033°03'0 0.0
2018-Jul-10 22:59N 69°01' E 033°03'0 0.0
2018-Jul-10 22:09N 69°01' E 033°03'0 0.0
2018-Jul-10 21:11N 69°01' E 033°03'0 0.0
2018-Jul-10 20:56N 69°01' E 033°03'0 0.0
2018-Jul-10 20:27N 69°01' E 033°03'0 0.0
2018-Jul-10 19:47N 69°01' E 033°03'0 0.0
2018-Jul-10 18:50N 69°01' E 033°03'0 0.0
2018-Jul-10 18:29N 69°01' E 033°03'0 0.0
2018-Jul-10 17:52N 69°01' E 033°03'0 0.0
2018-Jul-10 14:37N 69°01' E 033°03'0 0.0
2018-Jul-10 14:11N 69°01' E 033°03'0 0.0
2018-Jul-10 13:17N 69°01' E 033°03'0 0.0
2018-Jul-10 12:59N 69°01' E 033°03'0 0.0
2018-Jul-10 12:18N 69°01' E 033°03'0 0.0
2018-Jul-10 11:06N 69°01' E 033°03'0 0.0
2018-Jul-10 10:55N 69°01' E 033°03'0 0.0
2018-Jul-10 10:28N 69°01' E 033°03'0 0.0
2018-Jul-10 09:58N 69°01' E 033°03'0 0.0
2018-Jul-10 09:26N 69°01' E 033°03'0 0.0
2018-Jul-10 08:59N 69°01' E 033°03'0 0.0
2018-Jul-10 07:30N 69°01' E 033°03'0 0.0
2018-Jul-10 06:58N 69°01' E 033°03'0 0.0
2018-Jul-10 06:16N 69°01' E 033°03'0 0.0
2018-Jul-10 05:58N 69°01' E 033°03'0 0.0
2018-Jul-10 05:29N 69°01' E 033°03'0 0.0
2018-Jul-10 04:59N 69°01' E 033°03'0 0.0
2018-Jul-10 04:23N 69°01' E 033°03'0 0.0
2018-Jul-10 03:53N 69°01' E 033°03'0 0.0
2018-Jul-10 03:14N 69°01' E 033°03'0 0.0
2018-Jul-10 02:48N 69°01' E 033°03'0 0.0
2018-Jul-10 02:24N 69°01' E 033°03'0 0.0
2018-Jul-10 01:56N 69°01' E 033°03'0 0.0
2018-Jul-10 01:25N 69°01' E 033°03'0 0.0
2018-Jul-10 00:59N 69°01' E 033°03'0 0.0
2018-Jul-10 00:26N 69°01' E 033°03'0 0.0
2018-Jul-09 23:56N 69°01' E 033°03'0 0.0
2018-Jul-09 23:18N 69°01' E 033°03'0 0.0
2018-Jul-09 23:00N 69°01' E 033°03'0 0.0
2018-Jul-09 22:13N 69°01' E 033°03'0 0.0
2018-Jul-09 21:21N 69°01' E 033°03'0 0.0
2018-Jul-09 21:00N 69°01' E 033°03'0 0.0
2018-Jul-09 19:31N 69°01' E 033°03'0 0.0
2018-Jul-09 18:24N 69°01' E 033°03'0 0.0
2018-Jul-09 18:00N 69°01' E 033°03'0 0.0
2018-Jul-09 17:15N 69°01' E 033°03'0 0.0
2018-Jul-09 16:51N 69°01' E 033°03'0 0.0
2018-Jul-09 16:24N 69°01' E 033°03'0 0.0
2018-Jul-09 16:00N 69°01' E 033°03'0 0.0
2018-Jul-09 15:30N 69°01' E 033°03'0 0.0
2018-Jul-09 15:00N 69°01' E 033°03'0 0.0
2018-Jul-09 14:10N 69°01' E 033°03'0 0.0
2018-Jul-09 13:59N 69°01' E 033°03'0 0.0
2018-Jul-09 13:04N 69°01' E 033°03'0 0.0
2018-Jul-09 12:34N 69°01' E 033°03'0 0.0
2018-Jul-09 12:28N 69°01' E 033°03'0 0.0
2018-Jul-09 12:00N 69°01' E 033°03'0 0.0
2018-Jul-09 08:53N 69°01' E 033°03'0 0.0
2018-Jul-09 06:53N 69°01' E 033°03'0 0.0
2018-Jul-09 06:22N 69°01' E 033°03'0 0.0
2018-Jul-09 05:41N 69°01' E 033°03'0 0.0
2018-Jul-09 04:54N 69°01' E 033°03'0 0.0
2018-Jul-09 04:28N 69°01' E 033°03'0 0.0
2018-Jul-09 03:08N 69°01' E 033°03'0 0.0
2018-Jul-09 01:38N 69°01' E 033°03'0 0.0
2018-Jul-09 01:21N 69°01' E 033°03'0 0.0
2018-Jul-08 22:37N 69°01' E 033°03'0 0.0
2018-Jul-08 22:26N 69°01' E 033°03'0 0.0
2018-Jul-08 21:19N 69°01' E 033°03'0 0.0
2018-Jul-08 20:56N 69°01' E 033°03'0 0.0
2018-Jul-08 20:02N 69°01' E 033°03'0 0.0
2018-Jul-08 19:50N 69°01' E 033°03'0 0.0
2018-Jul-08 19:29N 69°01' E 033°03'0 0.0
2018-Jul-08 16:32N 69°01' E 033°03'0 0.0
2018-Jul-08 12:15N 69°01' E 033°03'  

Dump ship's entire track history